Time;durP1;ratioP1;P1;durP2;ratioP2;P2;SDS_P1;SDS_P2;PMS_P1;PMS_P2;Temp;Humidity;BMP_temperature;BMP_pressure;BME280_temperature;BME280_humidity;BME280_pressure;Samples;Min_cycle;Max_cycle;Signal;HPM_P1;HPM_P2
2022/09/14 00:01:23;;;;;;;2.92;1.80;;;19.90;99.90;;;;;;4912836;29;20715;-83
2022/09/14 00:03:52;;;;;;;5.07;1.08;;;19.80;99.90;;;;;;4914450;29;20230;-83
2022/09/14 00:06:19;;;;;;;3.35;1.10;;;19.70;99.90;;;;;;4907959;29;20207;-83
2022/09/14 00:08:50;;;;;;;1.60;1.20;;;19.70;99.90;;;;;;4907310;29;20230;-83
2022/09/14 00:11:18;;;;;;;4.85;1.40;;;19.80;99.90;;;;;;4912083;29;20196;-82
2022/09/14 00:13:46;;;;;;;4.32;1.30;;;19.80;99.90;;;;;;4912955;29;20245;-82
2022/09/14 00:16:19;;;;;;;3.53;1.17;;;19.80;99.90;;;;;;4911243;29;20210;-83
2022/09/14 00:18:52;;;;;;;3.80;1.40;;;19.70;99.90;;;;;;4907227;29;20195;-83
2022/09/14 00:21:20;;;;;;;2.63;1.17;;;19.80;99.90;;;;;;4907532;29;20230;-82
2022/09/14 00:23:48;;;;;;;7.13;1.40;;;19.50;99.90;;;;;;4924237;29;20214;-83
2022/09/14 00:26:17;;;;;;;1.90;1.02;;;19.70;99.90;;;;;;4911118;29;20217;-83
2022/09/14 00:28:47;;;;;;;2.95;1.10;;;19.70;99.90;;;;;;4907397;29;20574;-82
2022/09/14 00:31:16;;;;;;;4.10;1.20;;;19.70;99.90;;;;;;4911302;29;20191;-83
2022/09/14 00:33:47;;;;;;;4.18;1.30;;;19.80;99.90;;;;;;4924201;29;20227;-83
2022/09/14 00:36:18;;;;;;;4.30;1.42;;;19.80;99.90;;;;;;4918221;29;20206;-83
2022/09/14 00:38:46;;;;;;;6.38;1.95;;;19.80;99.90;;;;;;4905339;29;20203;-83
2022/09/14 00:41:15;;;;;;;5.25;1.42;;;19.70;99.90;;;;;;4923693;29;20195;-83
2022/09/14 00:43:58;;;;;;;5.97;1.80;;;19.80;99.90;;;;;;4891882;29;20219;-82
2022/09/14 00:46:27;;;;;;;6.32;1.20;;;19.60;99.90;;;;;;4915610;29;20206;-83
2022/09/14 00:48:58;;;;;;;3.25;1.20;;;19.70;99.90;;;;;;4916251;29;20207;-82
2022/09/14 00:51:31;;;;;;;4.53;1.23;;;19.60;99.90;;;;;;4922628;29;20183;-83
2022/09/14 00:54:01;;;;;;;2.95;1.20;;;19.60;99.90;;;;;;4916769;29;20726;-83
2022/09/14 00:56:28;;;;;;;3.50;1.08;;;19.50;99.90;;;;;;4922290;29;20214;-83
2022/09/14 00:58:58;;;;;;;3.92;1.27;;;19.50;99.90;;;;;;4905641;29;20203;-82
2022/09/14 01:01:27;;;;;;;2.15;1.17;;;19.40;99.90;;;;;;4906457;29;20215;-83
2022/09/14 01:03:54;;;;;;;3.78;1.05;;;19.40;99.90;;;;;;4901487;29;20215;-83
2022/09/14 01:06:26;;;;;;;2.83;1.17;;;19.30;99.90;;;;;;4925803;29;20214;-83
2022/09/14 01:09:09;;;;;;;5.10;1.30;;;19.30;99.90;;;;;;4915507;29;20199;-82
2022/09/14 01:11:57;;;;;;;5.43;1.20;;;19.20;99.90;;;;;;4910763;29;20202;-82
2022/09/14 01:14:32;;;;;;;4.93;1.15;;;19.00;99.90;;;;;;4918808;29;20216;-83
2022/09/14 01:17:06;;;;;;;1.90;0.93;;;19.10;99.90;;;;;;4905898;29;20198;-82
2022/09/14 01:19:46;;;;;;;5.22;1.10;;;19.10;99.90;;;;;;4905917;29;20203;-82
2022/09/14 01:22:20;;;;;;;4.95;1.52;;;18.90;99.90;;;;;;4918833;29;20210;-82
2022/09/14 01:24:55;;;;;;;3.25;1.23;;;18.70;99.90;;;;;;4906931;29;20241;-83
2022/09/14 01:27:31;;;;;;;2.45;1.17;;;18.70;99.90;;;;;;4922328;29;20195;-82
2022/09/14 01:30:06;;;;;;;2.05;1.10;;;18.90;99.90;;;;;;4923537;29;20198;-83
2022/09/14 01:32:40;;;;;;;3.75;1.23;;;19.00;99.90;;;;;;4922728;29;20206;-83
2022/09/14 01:35:13;;;;;;;8.38;1.20;;;19.00;99.90;;;;;;4916962;29;20241;-83
2022/09/14 01:37:45;;;;;;;4.28;1.38;;;19.10;99.90;;;;;;4920582;29;20203;-83
2022/09/14 01:40:18;;;;;;;4.43;1.35;;;19.00;99.90;;;;;;4918235;29;20222;-83
2022/09/14 01:42:50;;;;;;;3.42;1.20;;;19.00;99.90;;;;;;4903609;29;20220;-83
2022/09/14 01:45:24;;;;;;;4.85;1.00;;;18.70;99.90;;;;;;4898521;29;20199;-83
2022/09/14 01:47:55;;;;;;;4.88;1.13;;;18.80;99.90;;;;;;4909634;29;20207;-82
2022/09/14 01:50:30;;;;;;;4.57;1.40;;;18.80;99.90;;;;;;4898939;29;20215;-82
2022/09/14 01:53:02;;;;;;;4.22;1.10;;;18.90;99.90;;;;;;4915688;29;20198;-82
2022/09/14 01:55:34;;;;;;;4.95;0.95;;;18.50;99.90;;;;;;4923690;29;20203;-82
2022/09/14 01:58:10;;;;;;;4.85;1.02;;;18.50;99.90;;;;;;4890534;29;20208;-83
2022/09/14 02:00:44;;;;;;;7.50;1.40;;;18.70;99.90;;;;;;4901915;29;20214;-83
2022/09/14 02:03:15;;;;;;;7.18;1.63;;;18.70;99.90;;;;;;4928205;29;20232;-83
2022/09/14 02:05:49;;;;;;;3.00;1.38;;;18.70;99.90;;;;;;4917277;29;20218;-83
2022/09/14 02:08:16;;;;;;;4.50;1.23;;;18.70;99.90;;;;;;4909802;29;20203;-82
2022/09/14 02:10:44;;;;;;;5.15;1.55;;;18.70;99.90;;;;;;4923390;29;20202;-83
2022/09/14 02:13:13;;;;;;;4.75;1.20;;;18.60;99.90;;;;;;4908817;29;20203;-83
2022/09/14 02:15:41;;;;;;;3.72;1.10;;;18.50;99.90;;;;;;4909255;29;20219;-83
2022/09/14 02:18:11;;;;;;;2.50;1.10;;;18.30;99.90;;;;;;4917863;29;20207;-82
2022/09/14 02:20:45;;;;;;;4.07;1.10;;;18.30;99.90;;;;;;4909633;29;20211;-83
2022/09/14 02:23:12;;;;;;;5.68;1.30;;;18.10;99.90;;;;;;4910225;29;20223;-82
2022/09/14 02:25:40;;;;;;;4.88;1.10;;;18.10;99.90;;;;;;4914768;29;20212;-82
2022/09/14 02:28:07;;;;;;;5.07;1.42;;;18.20;99.90;;;;;;4927073;29;20211;-82
2022/09/14 02:30:43;;;;;;;5.60;1.33;;;18.20;99.90;;;;;;4914095;29;20207;-82
2022/09/14 02:33:19;;;;;;;5.35;1.38;;;18.40;99.90;;;;;;4920745;29;20214;-82
2022/09/14 02:35:52;;;;;;;4.45;1.15;;;18.40;99.90;;;;;;4908361;29;20202;-82
2022/09/14 02:38:28;;;;;;;2.92;1.20;;;18.40;99.90;;;;;;4913397;29;20210;-83
2022/09/14 02:41:02;;;;;;;5.18;1.33;;;18.30;99.90;;;;;;4917407;29;20210;-83
2022/09/14 02:43:37;;;;;;;2.72;1.40;;;18.30;99.90;;;;;;4934732;29;20234;-82
2022/09/14 02:46:13;;;;;;;2.72;1.30;;;18.30;99.90;;;;;;4914671;29;20203;-83
2022/09/14 02:48:47;;;;;;;3.88;1.45;;;18.40;99.90;;;;;;4916752;29;20214;-82
2022/09/14 02:51:19;;;;;;;3.50;1.00;;;18.30;99.90;;;;;;4925179;29;20211;-83
2022/09/14 02:53:53;;;;;;;3.45;1.20;;;18.30;99.90;;;;;;4911754;29;20246;-83
2022/09/14 02:56:21;;;;;;;5.50;1.25;;;18.10;99.90;;;;;;4914603;29;20199;-83
2022/09/14 02:58:49;;;;;;;4.28;1.02;;;18.20;99.90;;;;;;4917095;29;20210;-82
2022/09/14 03:01:20;;;;;;;4.05;1.55;;;18.30;99.90;;;;;;4917307;29;20215;-83
2022/09/14 03:03:48;;;;;;;4.35;1.48;;;18.30;99.90;;;;;;4911086;23;20605;-86
2022/09/14 03:06:16;;;;;;;5.28;1.10;;;18.30;99.90;;;;;;4878670;29;20212;-86
2022/09/14 03:08:44;;;;;;;4.00;1.13;;;18.40;99.90;;;;;;4894388;29;20204;-86
2022/09/14 03:11:11;;;;;;;3.20;1.00;;;18.50;99.90;;;;;;4869604;29;20196;-86
2022/09/14 03:13:39;;;;;;;4.80;1.27;;;18.40;99.90;;;;;;4879859;29;20235;-86
2022/09/14 03:16:07;;;;;;;3.53;1.23;;;18.40;99.90;;;;;;4887107;29;20200;-86
2022/09/14 03:18:37;;;;;;;5.43;1.67;;;18.40;99.90;;;;;;4863819;29;20208;-86
2022/09/14 03:21:08;;;;;;;5.10;1.33;;;18.40;99.90;;;;;;4894287;29;20247;-86
2022/09/14 03:23:38;;;;;;;2.72;1.35;;;18.40;99.90;;;;;;4892167;29;20712;-86
2022/09/14 03:26:09;;;;;;;3.08;1.17;;;18.50;99.90;;;;;;4889369;29;20204;-86
2022/09/14 03:28:39;;;;;;;6.63;1.65;;;18.40;99.90;;;;;;4895598;29;20215;-86
2022/09/14 03:31:08;;;;;;;3.95;1.30;;;18.30;99.90;;;;;;4897493;29;20207;-86
2022/09/14 03:33:37;;;;;;;5.43;1.30;;;18.40;99.90;;;;;;4881734;29;20228;-86
2022/09/14 03:36:10;;;;;;;11.85;2.20;;;18.40;99.90;;;;;;4878937;29;20215;-86
2022/09/14 03:38:38;;;;;;;3.83;1.38;;;18.50;99.90;;;;;;4885465;29;20207;-86
2022/09/14 03:41:08;;;;;;;3.13;1.10;;;18.30;99.90;;;;;;4892107;29;20204;-86
2022/09/14 03:43:36;;;;;;;5.07;1.50;;;18.10;99.90;;;;;;4882367;29;20259;-86
2022/09/14 03:46:06;;;;;;;3.22;1.00;;;18.20;99.90;;;;;;4878850;29;20205;-86
2022/09/14 03:48:34;;;;;;;5.18;1.63;;;18.20;99.90;;;;;;4878071;29;20223;-86
2022/09/14 03:51:04;;;;;;;4.07;1.30;;;18.00;99.90;;;;;;4876287;29;20209;-86
2022/09/14 03:53:32;;;;;;;3.53;1.13;;;18.00;99.90;;;;;;4899858;29;20220;-86
2022/09/14 03:56:00;;;;;;;5.47;1.70;;;18.00;99.90;;;;;;4893407;29;20534;-86
2022/09/14 03:58:31;;;;;;;3.70;1.52;;;17.90;99.90;;;;;;4878160;29;20200;-86
2022/09/14 04:01:04;;;;;;;4.82;1.30;;;17.70;99.90;;;;;;4878600;29;20208;-82
2022/09/14 04:03:31;;;;;;;2.03;1.30;;;17.80;99.90;;;;;;4876808;29;20233;-82
2022/09/14 04:05:59;;;;;;;3.58;1.40;;;17.90;99.90;;;;;;4879038;29;20208;-82
2022/09/14 04:08:28;;;;;;;2.40;1.45;;;17.90;99.90;;;;;;4893035;29;20289;-82
2022/09/14 04:10:55;;;;;;;5.05;1.52;;;18.00;99.90;;;;;;4886010;29;20200;-82
2022/09/14 04:13:23;;;;;;;3.83;1.67;;;18.00;99.90;;;;;;4878252;29;20229;-82
2022/09/14 04:15:58;;;;;;;2.80;1.40;;;18.20;99.90;;;;;;4909884;29;20215;-82
2022/09/14 04:18:26;;;;;;;5.85;1.95;;;18.30;99.90;;;;;;4893326;29;20214;-82
2022/09/14 04:20:58;;;;;;;4.90;1.75;;;18.30;99.90;;;;;;4889088;29;20203;-82
2022/09/14 04:23:25;;;;;;;6.63;1.73;;;18.30;99.90;;;;;;4886693;29;20226;-82
2022/09/14 04:25:55;;;;;;;3.70;1.42;;;18.20;99.90;;;;;;4886669;29;20208;-82
2022/09/14 04:28:22;;;;;;;3.70;1.38;;;18.20;99.90;;;;;;4894296;29;20211;-82
2022/09/14 04:30:58;;;;;;;7.05;1.60;;;18.00;99.90;;;;;;4895672;29;20214;-82
2022/09/14 04:33:30;;;;;;;4.63;1.88;;;17.80;99.90;;;;;;4895373;29;20583;-82
2022/09/14 04:36:00;;;;;;;3.50;1.45;;;17.90;99.90;;;;;;4884603;29;20216;-82
2022/09/14 04:38:28;;;;;;;7.95;2.08;;;17.70;99.90;;;;;;4879401;29;20211;-82
2022/09/14 04:40:57;;;;;;;4.53;1.70;;;17.80;99.90;;;;;;4889419;29;20208;-82
2022/09/14 04:43:25;;;;;;;4.05;1.50;;;17.90;99.90;;;;;;4896036;29;20236;-82
2022/09/14 04:45:53;;;;;;;3.80;1.60;;;18.00;99.90;;;;;;4890226;29;20549;-82
2022/09/14 04:48:21;;;;;;;5.72;1.55;;;17.90;99.90;;;;;;4897013;29;20211;-82
2022/09/14 04:50:48;;;;;;;5.28;1.55;;;17.90;99.90;;;;;;4898571;29;20192;-82
2022/09/14 04:53:16;;;;;;;4.80;2.00;;;18.00;99.90;;;;;;4886054;29;20228;-82
2022/09/14 04:55:43;;;;;;;7.05;2.00;;;18.00;99.90;;;;;;4885563;29;20210;-82
2022/09/14 04:58:15;;;;;;;5.15;1.60;;;18.10;99.90;;;;;;4877556;29;20211;-82
2022/09/14 05:00:42;;;;;;;3.10;2.00;;;18.10;99.90;;;;;;4878841;29;20201;-82
2022/09/14 05:03:10;;;;;;;5.10;1.73;;;18.10;99.90;;;;;;4877768;29;20236;-82
2022/09/14 05:05:38;;;;;;;3.35;1.75;;;18.10;99.90;;;;;;4877614;29;20200;-82
2022/09/14 05:08:06;;;;;;;5.65;2.40;;;18.10;99.90;;;;;;4886632;29;20199;-82
2022/09/14 05:10:33;;;;;;;4.65;2.05;;;18.10;99.90;;;;;;4897069;29;20199;-82
2022/09/14 05:13:01;;;;;;;4.07;1.92;;;18.10;99.90;;;;;;4892963;29;20615;-82
2022/09/14 05:15:30;;;;;;;9.88;2.30;;;18.00;99.90;;;;;;4885670;29;20203;-83
2022/09/14 05:17:57;;;;;;;3.42;1.95;;;17.90;99.90;;;;;;4881863;29;20204;-82
2022/09/14 05:20:25;;;;;;;4.38;1.85;;;17.90;99.90;;;;;;4901143;29;20204;-82
2022/09/14 05:22:52;;;;;;;3.42;1.67;;;17.70;99.90;;;;;;4879590;29;20240;-83
2022/09/14 05:25:19;;;;;;;4.97;2.00;;;17.70;99.90;;;;;;4906162;29;20222;-82
2022/09/14 05:27:47;;;;;;;5.85;2.40;;;17.80;99.90;;;;;;4868998;29;20217;-83
2022/09/14 05:30:14;;;;;;;3.97;2.25;;;17.60;99.90;;;;;;4877498;29;20196;-83
2022/09/14 05:32:45;;;;;;;6.00;2.70;;;17.60;99.90;;;;;;4906790;29;20663;-82
2022/09/14 05:35:13;;;;;;;4.85;2.35;;;17.70;99.90;;;;;;4908198;29;20293;-82
2022/09/14 05:37:40;;;;;;;6.45;2.92;;;17.70;99.90;;;;;;4902104;29;20211;-82
2022/09/14 05:40:09;;;;;;;7.85;2.67;;;17.80;99.90;;;;;;4881613;29;20212;-82
2022/09/14 05:42:36;;;;;;;4.47;2.60;;;17.80;99.90;;;;;;4896842;29;20228;-82
2022/09/14 05:45:05;;;;;;;5.50;2.10;;;17.70;99.90;;;;;;4877064;29;20291;-82
2022/09/14 05:47:32;;;;;;;5.53;2.60;;;17.60;99.90;;;;;;4898389;29;20208;-82
2022/09/14 05:50:01;;;;;;;6.50;2.05;;;17.80;99.90;;;;;;4885408;29;20222;-82
2022/09/14 05:52:29;;;;;;;5.28;2.65;;;17.80;99.90;;;;;;4897307;29;20202;-82
2022/09/14 05:54:57;;;;;;;4.75;2.28;;;17.80;99.90;;;;;;4879621;29;20584;-83
2022/09/14 05:57:24;;;;;;;4.00;2.30;;;17.90;99.90;;;;;;4883395;29;20200;-82
2022/09/14 05:59:52;;;;;;;4.82;2.67;;;17.90;99.90;;;;;;4888985;29;20216;-82
2022/09/14 06:02:19;;;;;;;5.00;2.40;;;17.80;99.90;;;;;;4882054;29;20220;-82
2022/09/14 06:04:47;;;;;;;3.42;2.13;;;17.80;99.90;;;;;;4886561;29;20239;-82
2022/09/14 06:07:16;;;;;;;8.52;3.03;;;17.80;99.90;;;;;;4890472;29;20206;-82
2022/09/14 06:09:43;;;;;;;6.45;2.50;;;17.70;99.90;;;;;;4897734;29;20211;-82
2022/09/14 06:12:13;;;;;;;7.43;2.30;;;17.70;99.90;;;;;;4878279;29;20208;-82
2022/09/14 06:14:40;;;;;;;7.28;2.90;;;17.50;99.90;;;;;;4882619;29;20231;-82
2022/09/14 06:17:08;;;;;;;4.22;2.83;;;17.50;99.90;;;;;;4894190;29;20208;-82
2022/09/14 06:19:38;;;;;;;6.72;2.15;;;17.50;99.90;;;;;;4907170;29;20215;-82
2022/09/14 06:22:06;;;;;;;3.75;2.20;;;17.40;99.90;;;;;;4894801;29;20669;-82
2022/09/14 06:24:36;;;;;;;2.97;1.90;;;17.40;99.90;;;;;;4889067;29;20695;-82
2022/09/14 06:27:03;;;;;;;5.45;2.03;;;17.50;99.90;;;;;;4887457;29;20211;-82
2022/09/14 06:29:31;;;;;;;5.57;2.13;;;17.40;99.90;;;;;;4886779;29;20213;-82
2022/09/14 06:31:58;;;;;;;2.78;1.73;;;17.40;99.90;;;;;;4890236;29;20211;-82
2022/09/14 06:34:26;;;;;;;6.30;2.47;;;17.40;99.90;;;;;;4882411;29;20220;-82
2022/09/14 06:36:53;;;;;;;2.97;2.22;;;17.50;99.90;;;;;;4887874;29;20223;-82
2022/09/14 06:39:21;;;;;;;3.92;2.20;;;17.40;99.90;;;;;;4897831;29;20215;-82
2022/09/14 06:41:50;;;;;;;4.65;2.05;;;17.40;99.90;;;;;;4887312;29;20211;-82
2022/09/14 06:44:20;;;;;;;5.60;2.25;;;17.40;99.90;;;;;;4906361;29;20238;-82
2022/09/14 06:46:47;;;;;;;5.68;2.50;;;17.40;99.90;;;;;;4885910;29;20212;-82
2022/09/14 06:49:19;;;;;;;4.20;2.08;;;17.30;99.90;;;;;;4908312;29;20200;-82
2022/09/14 06:51:47;;;;;;;5.22;2.15;;;17.30;99.90;;;;;;4875167;29;20669;-82
2022/09/14 06:54:16;;;;;;;3.45;2.30;;;17.30;99.90;;;;;;4886128;29;20231;-82
2022/09/14 06:56:45;;;;;;;4.85;2.50;;;17.20;99.90;;;;;;4893115;29;20212;-83
2022/09/14 06:59:15;;;;;;;5.20;2.50;;;17.20;99.90;;;;;;4881400;29;20208;-82
2022/09/14 07:01:44;;;;;;;5.07;2.33;;;17.00;99.90;;;;;;4893012;29;20210;-82
2022/09/14 07:04:13;;;;;;;6.13;2.03;;;16.80;99.90;;;;;;4892616;29;20602;-82
2022/09/14 07:06:42;;;;;;;5.25;2.70;;;16.90;99.90;;;;;;4895268;29;20306;-82
2022/09/14 07:09:10;;;;;;;5.10;2.22;;;17.00;99.90;;;;;;4894098;29;20203;-82
2022/09/14 07:11:38;;;;;;;2.53;1.70;;;17.00;99.90;;;;;;4886026;29;20687;-83
2022/09/14 07:14:06;;;;;;;3.67;1.90;;;17.10;99.90;;;;;;4890145;29;20221;-82
2022/09/14 07:16:36;;;;;;;4.40;2.03;;;17.00;99.90;;;;;;4889756;29;20212;-82
2022/09/14 07:19:06;;;;;;;4.10;1.92;;;16.90;99.90;;;;;;4886630;29;20207;-81
2022/09/14 07:21:34;;;;;;;4.05;1.52;;;16.90;99.90;;;;;;4877605;29;20217;-82
2022/09/14 07:24:02;;;;;;;5.20;1.75;;;16.90;99.90;;;;;;4890428;29;20228;-82
2022/09/14 07:26:32;;;;;;;5.22;2.00;;;16.90;99.90;;;;;;4887035;29;20212;-82
2022/09/14 07:29:02;;;;;;;5.90;2.05;;;16.90;99.90;;;;;;4886068;29;20205;-82
2022/09/14 07:31:32;;;;;;;5.43;2.10;;;17.00;99.90;;;;;;4888505;29;20211;-82
2022/09/14 07:34:03;;;;;;;3.67;1.85;;;16.90;99.90;;;;;;4890314;29;20227;-82
2022/09/14 07:36:32;;;;;;;3.70;1.70;;;16.90;99.90;;;;;;4888059;29;20211;-82
2022/09/14 07:38:59;;;;;;;4.88;2.38;;;16.70;99.90;;;;;;4888203;29;20574;-82
2022/09/14 07:41:29;;;;;;;5.85;2.35;;;16.70;99.90;;;;;;4879528;29;20218;-82
2022/09/14 07:43:59;;;;;;;3.72;2.00;;;16.80;99.90;;;;;;4890607;29;20231;-82
2022/09/14 07:46:27;;;;;;;4.50;1.73;;;16.70;99.90;;;;;;4906507;29;20207;-82
2022/09/14 07:48:57;;;;;;;3.20;1.88;;;16.60;99.90;;;;;;4884108;29;20201;-82
2022/09/14 07:51:26;;;;;;;4.40;1.77;;;16.20;99.90;;;;;;4886524;29;20213;-82
2022/09/14 07:53:56;;;;;;;4.32;1.88;;;16.30;99.90;;;;;;4877831;29;20227;-82
2022/09/14 07:56:24;;;;;;;3.78;2.40;;;16.30;99.90;;;;;;4883812;29;20215;-82
2022/09/14 07:58:54;;;;;;;3.20;2.10;;;16.40;99.90;;;;;;4886477;29;20211;-82
2022/09/14 08:01:23;;;;;;;3.97;2.08;;;16.50;99.90;;;;;;4886043;29;20208;-83
2022/09/14 08:03:50;;;;;;;4.00;2.15;;;16.50;99.90;;;;;;4894637;29;20220;-82
2022/09/14 08:06:21;;;;;;;6.68;2.63;;;16.50;99.90;;;;;;4880331;29;20205;-82
2022/09/14 08:08:52;;;;;;;5.93;2.30;;;16.50;99.90;;;;;;4880421;29;20208;-82
2022/09/14 08:11:21;;;;;;;5.25;2.20;;;16.60;99.90;;;;;;4889338;29;20551;-82
2022/09/14 08:13:51;;;;;;;5.43;2.33;;;16.50;99.90;;;;;;4890297;29;20235;-82
2022/09/14 08:16:19;;;;;;;3.72;2.30;;;16.30;99.90;;;;;;4891911;29;20188;-82
2022/09/14 08:18:47;;;;;;;4.90;2.65;;;16.50;99.90;;;;;;4886361;29;20192;-82
2022/09/14 08:21:17;;;;;;;4.57;2.72;;;16.50;99.90;;;;;;4893900;29;20495;-82
2022/09/14 08:23:45;;;;;;;4.15;2.83;;;16.50;99.90;;;;;;4897379;29;20710;-82
2022/09/14 08:26:15;;;;;;;7.88;3.70;;;16.50;99.90;;;;;;4890325;29;20211;-82
2022/09/14 08:28:44;;;;;;;7.32;3.38;;;16.30;99.90;;;;;;4882205;29;20479;-82
2022/09/14 08:31:14;;;;;;;4.80;3.00;;;16.50;99.90;;;;;;4887015;29;20197;-82
2022/09/14 08:33:45;;;;;;;5.38;2.97;;;16.50;99.90;;;;;;4890026;29;20226;-82
2022/09/14 08:36:15;;;;;;;6.68;3.63;;;16.30;99.90;;;;;;4888005;29;20200;-82
2022/09/14 08:38:42;;;;;;;8.23;3.50;;;16.30;99.90;;;;;;4878625;29;20574;-82
2022/09/14 08:41:18;;;;;;;4.47;3.45;;;16.40;99.90;;;;;;4886265;29;20570;-82
2022/09/14 08:43:46;;;;;;;6.47;3.42;;;16.50;99.90;;;;;;4888807;29;20702;-82
2022/09/14 08:46:24;;;;;;;5.88;3.28;;;16.40;99.90;;;;;;4893263;29;20595;-82
2022/09/14 08:48:53;;;;;;;6.72;3.42;;;16.30;99.90;;;;;;4885422;29;20200;-82
2022/09/14 08:51:21;;;;;;;7.88;3.92;;;16.40;99.90;;;;;;4885162;29;20208;-82
2022/09/14 08:53:52;;;;;;;5.97;4.75;;;16.40;99.90;;;;;;4880864;29;20208;-82
2022/09/14 08:56:24;;;;;;;9.00;5.30;;;16.30;99.90;;;;;;4880772;29;20207;-82
2022/09/14 08:59:05;;;;;;;5.28;4.68;;;16.30;99.90;;;;;;4879545;29;20201;-82
2022/09/14 09:01:40;;;;;;;6.55;5.63;;;16.30;99.90;;;;;;4880846;29;20216;-82
2022/09/14 09:04:26;;;;;;;6.82;4.80;;;16.50;99.90;;;;;;4916884;23;20225;-82
2022/09/14 09:06:59;;;;;;;7.00;5.10;;;16.60;99.90;;;;;;4962852;29;20665;-81
2022/09/14 09:09:33;;;;;;;7.57;4.30;;;16.40;99.90;;;;;;4970992;28;20201;-82
2022/09/14 09:12:02;;;;;;;5.45;4.88;;;16.50;99.90;;;;;;4969746;28;20208;-82
2022/09/14 09:14:34;;;;;;;6.78;4.57;;;16.50;99.90;;;;;;4969033;29;20225;-82
2022/09/14 09:17:05;;;;;;;6.00;4.22;;;16.60;99.90;;;;;;4973086;28;20202;-83
2022/09/14 09:19:38;;;;;;;6.40;4.15;;;16.60;99.90;;;;;;4972644;28;20189;-82
2022/09/14 09:22:14;;;;;;;6.32;4.03;;;16.60;99.90;;;;;;4971186;28;20205;-82
2022/09/14 09:24:47;;;;;;;5.15;3.45;;;16.80;99.90;;;;;;4968952;28;20229;-82
2022/09/14 09:27:16;;;;;;;5.50;3.50;;;16.90;99.90;;;;;;4973411;28;20190;-82
2022/09/14 09:29:44;;;;;;;6.00;3.80;;;16.60;99.90;;;;;;4969228;28;20202;-82
2022/09/14 09:32:16;;;;;;;3.83;3.15;;;16.80;99.90;;;;;;4969763;28;20204;-82
2022/09/14 09:34:47;;;;;;;4.38;3.30;;;16.80;99.90;;;;;;4970328;28;20221;-82
2022/09/14 09:37:38;;;;;;;4.18;3.30;;;16.80;99.90;;;;;;4956126;28;20202;-82
2022/09/14 09:40:15;;;;;;;3.50;3.20;;;16.70;99.90;;;;;;4951847;29;20208;-81
2022/09/14 09:43:05;;;;;;;4.82;3.85;;;16.40;99.90;;;;;;4983408;28;20193;-82
2022/09/14 09:45:48;;;;;;;3.97;3.42;;;16.30;99.90;;;;;;4968780;29;20225;-81
2022/09/14 09:48:18;;;;;;;5.10;3.33;;;16.20;99.90;;;;;;4952072;29;20208;-81
2022/09/14 09:50:51;;;;;;;5.32;4.10;;;16.30;99.90;;;;;;4952245;29;20201;-82
2022/09/14 09:53:22;;;;;;;3.45;3.15;;;16.40;99.90;;;;;;4970224;29;20193;-81
2022/09/14 09:55:50;;;;;;;5.15;3.50;;;16.40;99.90;;;;;;4949932;29;20210;-81
2022/09/14 09:58:27;;;;;;;2.78;2.58;;;16.40;99.90;;;;;;4968854;29;20197;-82
2022/09/14 10:00:59;;;;;;;4.65;3.03;;;16.50;99.90;;;;;;4952576;29;20201;-82
2022/09/14 10:03:33;;;;;;;3.88;2.90;;;16.50;99.90;;;;;;4952270;29;20208;-81
2022/09/14 10:06:08;;;;;;;4.85;3.05;;;16.60;99.90;;;;;;4951638;29;20233;-82
2022/09/14 10:08:42;;;;;;;3.65;3.35;;;16.60;99.90;;;;;;4951991;29;20203;-82
2022/09/14 10:11:38;;;;;;;3.97;3.00;;;16.60;99.90;;;;;;4946374;28;20200;-82
2022/09/14 10:14:22;;;;;;;3.30;3.00;;;16.70;99.90;;;;;;4926371;29;20564;-81
2022/09/14 10:16:50;;;;;;;3.17;2.88;;;16.60;99.90;;;;;;4932796;29;20203;-82
2022/09/14 10:19:23;;;;;;;3.78;3.22;;;16.70;99.90;;;;;;4932107;29;20202;-81
2022/09/14 10:22:19;;;;;;;2.80;2.50;;;16.70;99.90;;;;;;4932679;29;20217;-82
2022/09/14 10:24:56;;;;;;;2.55;1.90;;;16.60;99.90;;;;;;4930004;28;20226;-82
2022/09/14 10:27:39;;;;;;;2.88;1.88;;;16.60;99.90;;;;;;4980313;28;20197;-82
2022/09/14 10:30:13;;;;;;;2.03;1.73;;;16.40;99.90;;;;;;4951645;29;20204;-82
2022/09/14 10:32:43;;;;;;;3.83;1.73;;;16.60;99.90;;;;;;4950909;29;20198;-81
2022/09/14 10:35:15;;;;;;;2.30;1.63;;;16.50;99.90;;;;;;4951051;29;20218;-82
2022/09/14 10:37:52;;;;;;;3.03;1.58;;;16.30;99.90;;;;;;4950121;29;20217;-81
2022/09/14 10:40:26;;;;;;;3.10;1.40;;;16.30;99.90;;;;;;4949868;29;20205;-82
2022/09/14 10:43:10;;;;;;;2.90;1.17;;;16.20;99.90;;;;;;4945171;29;20204;-82
2022/09/14 10:45:42;;;;;;;2.55;1.30;;;16.20;99.90;;;;;;4950525;29;20258;-81
2022/09/14 10:48:44;;;;;;;2.88;1.33;;;16.40;99.90;;;;;;4950670;29;20198;-82
2022/09/14 10:51:41;;;;;;;1.98;1.30;;;16.50;99.90;;;;;;4951465;29;20201;-82
2022/09/14 10:54:25;;;;;;;2.53;1.80;;;16.20;99.90;;;;;;4949834;29;20248;-81
2022/09/14 10:57:05;;;;;;;3.35;2.90;;;16.30;99.90;;;;;;4931741;29;20562;-81
2022/09/14 10:59:39;;;;;;;2.92;1.40;;;16.40;99.90;;;;;;4948858;29;20662;-82
2022/09/14 11:02:40;;;;;;;1.25;1.15;;;16.40;99.90;;;;;;4931122;29;20209;-81
2022/09/14 11:05:14;;;;;;;2.78;1.00;;;16.40;99.90;;;;;;4932049;29;20735;-81
2022/09/14 11:07:50;;;;;;;1.05;0.88;;;16.10;99.90;;;;;;4931455;29;20209;-82
2022/09/14 11:10:23;;;;;;;3.95;0.95;;;16.20;99.90;;;;;;4949366;29;20208;-82
2022/09/14 11:13:05;;;;;;;1.58;1.00;;;16.30;99.90;;;;;;4945470;29;20201;-82
2022/09/14 11:15:41;;;;;;;1.83;0.93;;;16.40;99.90;;;;;;4949204;29;20728;-82
2022/09/14 11:18:17;;;;;;;3.00;1.00;;;16.20;99.90;;;;;;4951196;29;20204;-82
2022/09/14 11:20:52;;;;;;;3.10;1.17;;;16.30;99.90;;;;;;4951070;29;20213;-82
2022/09/14 11:23:30;;;;;;;2.50;1.00;;;16.20;99.90;;;;;;4948778;29;20201;-82
2022/09/14 11:26:01;;;;;;;2.47;1.02;;;16.30;99.90;;;;;;4931707;29;20214;-81
2022/09/14 11:28:34;;;;;;;1.10;0.70;;;16.30;99.90;;;;;;4931757;29;20209;-82
2022/09/14 11:31:05;;;;;;;1.88;0.68;;;16.20;99.90;;;;;;4931674;29;20209;-82
2022/09/14 11:33:39;;;;;;;1.35;0.98;;;16.10;99.90;;;;;;4931359;29;20218;-82
2022/09/14 11:36:15;;;;;;;1.30;0.70;;;16.30;99.90;;;;;;4937468;29;20204;-82
2022/09/14 11:38:46;;;;;;;1.60;0.98;;;16.40;99.90;;;;;;4943160;28;20205;-81
2022/09/14 11:41:22;;;;;;;1.00;0.68;;;16.20;99.90;;;;;;4977861;28;20204;-82
2022/09/14 11:43:55;;;;;;;1.30;1.02;;;16.00;99.90;;;;;;4943101;29;20287;-82
2022/09/14 11:46:27;;;;;;;1.35;1.05;;;16.30;99.90;;;;;;4948924;29;20693;-82
2022/09/14 11:49:03;;;;;;;5.20;1.45;;;16.30;99.90;;;;;;4952482;28;20201;-81
2022/09/14 11:51:36;;;;;;;2.30;1.10;;;16.30;99.90;;;;;;4950776;29;20198;-82
2022/09/14 11:54:11;;;;;;;2.00;0.93;;;16.20;99.90;;;;;;4965932;28;20224;-82
2022/09/14 11:56:39;;;;;;;2.42;1.05;;;16.30;99.90;;;;;;4950052;29;20204;-82
2022/09/14 11:59:07;;;;;;;1.77;0.80;;;16.50;99.90;;;;;;4966385;28;20197;-82
2022/09/14 12:01:36;;;;;;;2.40;1.10;;;16.40;99.90;;;;;;4950052;29;20212;-82
2022/09/14 12:04:15;;;;;;;1.67;1.05;;;16.20;99.90;;;;;;4948159;29;20232;-82
2022/09/14 12:06:46;;;;;;;1.48;1.17;;;16.20;99.90;;;;;;4949333;28;20224;-81
2022/09/14 12:09:52;;;;;;;1.40;1.00;;;16.20;99.90;;;;;;4949273;28;20209;-81
2022/09/14 12:12:38;;;;;;;1.35;1.20;;;16.00;99.90;;;;;;4945992;29;20232;-82
2022/09/14 12:15:29;;;;;;;2.85;1.55;;;16.20;99.90;;;;;;4948379;28;20246;-82
2022/09/14 12:18:23;;;;;;;2.55;1.70;;;16.30;99.90;;;;;;4964948;28;20202;-81
2022/09/14 12:21:01;;;;;;;1.90;1.45;;;16.30;99.90;;;;;;4981378;28;20201;-81
2022/09/14 12:23:45;;;;;;;3.28;1.23;;;16.20;99.90;;;;;;4955908;29;20201;-81
2022/09/14 12:26:27;;;;;;;2.63;1.20;;;16.30;99.90;;;;;;4950924;28;20228;-82
2022/09/14 12:28:57;;;;;;;2.85;1.20;;;16.40;99.90;;;;;;4964953;28;20561;-82
2022/09/14 12:31:58;;;;;;;3.33;1.40;;;16.40;99.90;;;;;;4955414;29;20202;-82
2022/09/14 12:34:26;;;;;;;2.92;1.33;;;16.40;99.90;;;;;;4948804;29;20238;-81
2022/09/14 12:37:30;;;;;;;2.83;1.30;;;16.60;99.90;;;;;;4954541;29;20189;-81
2022/09/14 12:40:32;;;;;;;2.33;1.30;;;16.50;99.90;;;;;;4953553;28;20213;-81
2022/09/14 12:43:48;;;;;;;3.38;1.50;;;16.10;99.90;;;;;;4967453;28;20208;-81
2022/09/14 12:46:34;;;;;;;2.33;1.52;;;16.40;99.90;;;;;;4951605;29;20213;-81
2022/09/14 12:49:04;;;;;;;1.88;1.48;;;16.40;99.90;;;;;;4952897;29;20210;-81
2022/09/14 12:51:42;;;;;;;2.63;1.27;;;16.30;99.90;;;;;;4952553;28;20201;-83
2022/09/14 12:54:25;;;;;;;2.05;1.40;;;16.30;99.90;;;;;;4952223;29;20221;-81
2022/09/14 12:57:03;;;;;;;2.10;1.13;;;16.40;99.90;;;;;;4957640;28;20204;-81
2022/09/14 12:59:38;;;;;;;2.17;1.33;;;16.70;99.90;;;;;;4945792;29;20206;-82
2022/09/14 13:02:33;;;;;;;3.45;1.48;;;16.80;99.90;;;;;;4949732;29;20208;-82
2022/09/14 13:05:02;;;;;;;3.95;1.73;;;16.60;99.90;;;;;;4934292;28;21813;-81
2022/09/14 13:07:33;;;;;;;3.67;1.58;;;16.70;99.90;;;;;;4963911;29;20214;-82
2022/09/14 13:10:02;;;;;;;2.75;1.60;;;16.80;99.90;;;;;;4946043;28;20213;-82
2022/09/14 13:12:37;;;;;;;3.83;2.22;;;16.90;99.90;;;;;;4949055;29;20202;-82
2022/09/14 13:15:07;;;;;;;3.10;1.83;;;16.90;99.90;;;;;;4964867;28;20225;-81